Archival Weather

Norman Y Mineta San Jose Intl

San Jose, California (KSJC)

Report from: Wednesday, April 3, 2024 12:53 AM PDT
Current time: Tuesday, May 21, 2024 10:48 AM PDT

Current weather – Weather history – Daily summaries
Weather forecast

Temperature12.8°C (55.0°F)
Dew point9.4°C (48.9°F)
Winds 4 kts (2.1 m/s, 4.6 mph) North (350°)
Visibility10 mi. (16.1 km)
Clouds Sky clear
Altimeter30.29 in.Hg (1026 mB)
Relative humidity80 %
Density altitude-507 ft. (-155 m)
Sea-level pressure102.6 kPa (1026 mB, 30.28 in.Hg)
Max temp last 24 hours24.4°C (75.9°F)
Min temp last 24 hours9.4°C (48.9°F)
Remarks Fully automated report
Automated weather observing station with precipitation discriminator
Flight conditions Visual Meteorological Conditions
Raw dataKSJC 030753Z AUTO 35004KT 10SM CLR 13/09 A3029 RMK AO2 SLP255 T01280094 402440094
An error has occurred. This application may no longer respond until reloaded. Reload 🗙